Time;durP1;ratioP1;P1;durP2;ratioP2;P2;SDS_P1;SDS_P2;PMS_P1;PMS_P2;Temp;Humidity;BMP_temperature;BMP_pressure;BME280_temperature;BME280_humidity;BME280_pressure;Samples;Min_cycle;Max_cycle;Signal;HPM_P1;HPM_P2
2022/01/22 00:00:08;;;;;;;18.23;17.33;;;4.60;71.50;;;;;;4979323;28;20026;-83
2022/01/22 00:02:34;;;;;;;18.90;18.00;;;4.60;71.50;;;;;;4993001;28;20502;-82
2022/01/22 00:05:00;;;;;;;18.77;17.87;;;4.60;71.60;;;;;;4980802;28;20027;-82
2022/01/22 00:07:26;;;;;;;17.70;16.90;;;4.60;71.60;;;;;;4990208;28;20061;-83
2022/01/22 00:09:59;;;;;;;18.83;17.93;;;4.60;71.60;;;;;;4983520;28;20494;-82
2022/01/22 00:15:08;;;;;;;18.47;17.57;;;4.60;71.60;;;;;;4981424;28;20033;-81
2022/01/22 00:17:34;;;;;;;17.00;16.20;;;4.60;71.60;;;;;;4990751;28;20517;-82
2022/01/22 00:20:00;;;;;;;17.97;17.07;;;4.60;71.60;;;;;;4991507;28;20325;-83
2022/01/22 00:22:31;;;;;;;17.80;17.00;;;4.50;71.70;;;;;;4986790;28;20500;-83
2022/01/22 00:24:59;;;;;;;17.53;16.73;;;4.60;71.80;;;;;;4979488;28;20019;-83
2022/01/22 00:27:26;;;;;;;17.37;16.57;;;4.50;71.70;;;;;;4982671;28;20389;-83
2022/01/22 00:29:52;;;;;;;17.93;17.10;;;4.50;71.80;;;;;;4993159;28;20030;-82
2022/01/22 00:32:18;;;;;;;17.90;17.00;;;4.60;71.90;;;;;;4982473;28;20042;-83
2022/01/22 00:34:44;;;;;;;17.50;16.70;;;4.50;71.90;;;;;;4987161;28;20495;-82
2022/01/22 00:37:10;;;;;;;18.37;17.47;;;4.60;72.00;;;;;;4985602;28;20037;-83
2022/01/22 00:39:36;;;;;;;18.07;16.97;;;4.50;71.90;;;;;;4984499;28;20369;-82
2022/01/22 00:42:08;;;;;;;17.33;16.53;;;4.50;72.00;;;;;;4992290;28;20038;-82
2022/01/22 00:44:34;;;;;;;19.63;18.43;;;4.50;72.10;;;;;;4976831;28;20046;-82
2022/01/22 00:47:02;;;;;;;19.77;18.60;;;4.50;72.90;;;;;;4989475;28;20035;-83
2022/01/22 00:49:29;;;;;;;17.67;16.83;;;4.40;72.20;;;;;;4990116;28;20035;-83
2022/01/22 00:51:56;;;;;;;18.30;17.40;;;4.40;72.30;;;;;;4987126;28;20050;-82
2022/01/22 00:54:22;;;;;;;18.57;17.67;;;4.30;72.30;;;;;;4990790;28;20035;-82
2022/01/22 00:56:48;;;;;;;17.97;17.17;;;4.30;72.30;;;;;;4994189;28;20035;-83
2022/01/22 00:59:14;;;;;;;18.00;17.13;;;4.30;72.40;;;;;;4990233;28;20467;-83
2022/01/22 01:01:40;;;;;;;18.63;17.63;;;4.30;72.50;;;;;;4982625;28;20034;-83
2022/01/22 01:04:09;;;;;;;18.20;17.30;;;4.20;72.50;;;;;;4983529;28;20034;-82
2022/01/22 01:06:35;;;;;;;18.27;17.30;;;4.20;72.50;;;;;;4992382;28;20049;-82
2022/01/22 01:09:03;;;;;;;18.00;17.20;;;4.20;72.60;;;;;;4980510;28;20045;-82
2022/01/22 01:11:32;;;;;;;17.80;17.00;;;4.10;72.60;;;;;;4991443;28;20046;-82
2022/01/22 01:14:01;;;;;;;18.00;17.20;;;4.10;72.70;;;;;;4986270;28;20070;-83
2022/01/22 01:33:14;;;;;;;19.17;18.07;;;3.90;72.80;;;;;;4968921;28;20030;-83
2022/01/22 01:35:41;;;;;;;17.70;16.90;;;3.90;72.80;;;;;;4965589;28;20049;-83
2022/01/22 01:38:08;;;;;;;17.70;16.90;;;3.80;72.80;;;;;;4976896;28;20039;-83
2022/01/22 01:40:38;;;;;;;19.30;18.10;;;3.80;72.90;;;;;;4977783;28;20042;-83
2022/01/22 01:43:16;;;;;;;17.90;17.10;;;3.80;72.90;;;;;;4970239;28;20038;-83
2022/01/22 01:45:42;;;;;;;17.50;16.70;;;3.80;72.90;;;;;;4974572;28;20035;-83
2022/01/22 01:48:14;;;;;;;17.17;16.37;;;3.70;72.90;;;;;;4984774;28;20089;-83
2022/01/22 01:50:42;;;;;;;17.53;16.73;;;3.70;73.00;;;;;;4977364;28;20430;-83
2022/01/22 01:53:14;;;;;;;19.13;17.57;;;3.70;73.00;;;;;;4976656;28;20534;-83
2022/01/22 01:58:13;;;;;;;17.00;16.20;;;3.70;73.10;;;;;;4987028;28;20030;-83
2022/01/22 02:00:39;;;;;;;18.23;17.13;;;3.60;73.10;;;;;;4989520;28;20033;-83
2022/01/22 02:03:06;;;;;;;18.23;17.33;;;3.60;73.10;;;;;;4981957;28;20026;-83
2022/01/22 02:05:34;;;;;;;18.47;17.50;;;3.60;73.10;;;;;;4990289;28;20491;-83
2022/01/22 02:08:00;;;;;;;16.77;15.97;;;3.60;73.20;;;;;;4989237;28;20034;-84
2022/01/22 02:10:29;;;;;;;17.80;16.90;;;3.60;73.20;;;;;;4984819;28;20046;-83
2022/01/22 02:23:44;;;;;;;17.63;16.77;;;3.50;73.30;;;;;;4988119;28;20058;-83
2022/01/22 02:26:11;;;;;;;17.50;16.63;;;3.40;73.30;;;;;;4978249;28;20480;-83
2022/01/22 02:28:37;;;;;;;18.10;16.90;;;3.40;73.30;;;;;;4981036;28;20069;-83
2022/01/22 02:32:25;;;;;;;17.03;16.23;;;3.40;73.30;;;;;;4982203;28;20041;-83
2022/01/22 02:37:17;;;;;;;16.93;15.90;;;3.40;73.30;;;;;;4992214;28;20499;-83
2022/01/22 02:39:20;;;;;;;16.80;16.00;;;3.30;73.30;;;;;;4979726;28;20043;-83
2022/01/22 02:41:48;;;;;;;17.83;16.97;;;3.30;73.30;;;;;;4991591;28;20054;-83
2022/01/22 02:44:35;;;;;;;17.30;16.50;;;3.30;73.30;;;;;;4979581;28;20375;-83
2022/01/22 02:47:03;;;;;;;17.77;16.93;;;3.30;73.40;;;;;;4979532;28;20396;-83
2022/01/22 02:49:29;;;;;;;17.70;16.80;;;3.30;73.40;;;;;;4986875;28;20051;-83
2022/01/22 02:52:03;;;;;;;17.23;16.43;;;3.30;73.40;;;;;;4984320;28;20035;-83
2022/01/22 02:54:29;;;;;;;16.97;16.17;;;3.30;73.40;;;;;;4975998;28;20050;-83
2022/01/22 02:56:56;;;;;;;17.43;16.63;;;3.20;73.40;;;;;;4991619;28;20041;-83
2022/01/22 02:59:23;;;;;;;17.00;16.20;;;3.20;73.50;;;;;;4985809;28;20030;-83
2022/01/22 03:01:50;;;;;;;18.33;17.33;;;3.20;73.50;;;;;;4980170;28;20432;-83
2022/01/22 03:04:16;;;;;;;17.70;16.70;;;3.10;73.50;;;;;;4976905;28;20057;-83
2022/01/22 03:06:43;;;;;;;17.53;16.73;;;3.10;73.60;;;;;;4968213;28;20046;-83
2022/01/22 03:09:11;;;;;;;17.80;16.77;;;3.10;73.60;;;;;;4980408;28;20051;-83
2022/01/22 03:11:47;;;;;;;16.77;15.87;;;3.10;73.60;;;;;;4980089;28;20035;-83
2022/01/22 03:17:22;;;;;;;17.93;17.03;;;3.10;73.60;;;;;;4990474;28;20030;-83
2022/01/22 03:22:17;;;;;;;17.03;16.13;;;3.10;73.60;;;;;;4982757;28;20078;-83
2022/01/22 03:27:30;;;;;;;17.00;16.17;;;3.00;73.70;;;;;;4983717;28;20506;-83
2022/01/22 03:29:56;;;;;;;16.60;15.80;;;3.10;74.50;;;;;;4987569;28;20475;-83
2022/01/22 03:32:24;;;;;;;17.00;16.20;;;3.10;73.70;;;;;;4987541;28;20042;-82
2022/01/22 03:34:57;;;;;;;17.67;16.67;;;3.00;73.60;;;;;;4987137;28;20035;-83
2022/01/22 03:37:23;;;;;;;16.13;15.33;;;3.10;73.70;;;;;;4986899;28;20030;-82
2022/01/22 03:39:49;;;;;;;17.00;16.20;;;3.10;73.70;;;;;;5002274;28;20387;-82
2022/01/22 03:42:16;;;;;;;16.43;15.63;;;3.10;73.70;;;;;;4976635;28;20031;-82
2022/01/22 03:44:42;;;;;;;17.03;16.23;;;3.10;73.70;;;;;;4987167;28;20094;-82
2022/01/22 03:47:08;;;;;;;16.10;15.30;;;3.10;73.70;;;;;;4987083;28;20034;-82
2022/01/22 03:49:34;;;;;;;16.70;15.90;;;3.10;73.70;;;;;;4980112;28;20054;-82
2022/01/22 03:52:00;;;;;;;16.50;15.70;;;3.10;73.80;;;;;;4977950;28;20038;-82
2022/01/22 03:54:26;;;;;;;17.00;16.20;;;3.00;73.80;;;;;;4975016;28;20041;-82
2022/01/22 03:56:53;;;;;;;16.70;15.90;;;3.00;73.80;;;;;;4987084;28;20022;-82
2022/01/22 03:59:19;;;;;;;16.07;15.30;;;3.00;73.80;;;;;;4987817;28;20061;-82
2022/01/22 04:04:16;;;;;;;16.73;15.93;;;3.00;73.80;;;;;;4979824;28;20034;-82
2022/01/22 04:09:27;;;;;;;17.08;16.27;;;3.00;73.80;;;;;;4989575;28;20053;-82
2022/01/22 04:11:54;;;;;;;16.47;15.70;;;3.00;73.80;;;;;;4989027;28;20360;-82
2022/01/22 04:14:25;;;;;;;17.43;16.53;;;3.00;73.80;;;;;;4975394;28;20043;-83
2022/01/22 04:17:16;;;;;;;;;;;3.00;73.80;;;;;;4980955;28;20043;-82
2022/01/22 04:25:16;;;;;;;17.03;16.23;;;2.90;73.70;;;;;;4987007;28;20042;-82
2022/01/22 04:27:42;;;;;;;;;;;2.90;73.70;;;;;;4977712;28;20031;-82
2022/01/22 04:30:09;;;;;;;17.00;16.10;;;2.90;73.70;;;;;;4988044;28;19917;-82
2022/01/22 04:32:35;;;;;;;17.53;16.53;;;2.90;73.60;;;;;;4985205;28;20042;-82
2022/01/22 04:35:01;;;;;;;17.00;16.20;;;2.90;73.70;;;;;;4989889;28;20387;-82
2022/01/22 04:37:28;;;;;;;16.90;16.10;;;2.90;73.70;;;;;;4983668;28;20050;-82
2022/01/22 04:39:54;;;;;;;17.23;16.43;;;2.90;73.70;;;;;;4983549;28;20034;-83
2022/01/22 04:42:20;;;;;;;16.23;15.53;;;2.90;73.70;;;;;;4993296;28;20031;-82
2022/01/22 04:47:31;;;;;;;17.00;16.20;;;3.00;73.80;;;;;;4974247;28;20034;-83
2022/01/22 04:54:57;;;;;;;17.03;16.23;;;3.00;73.80;;;;;;4981802;28;20392;-83
2022/01/22 04:55:27;;;;;;;16.70;15.70;;;3.10;73.80;;;;;;4984932;28;20400;-83
2022/01/22 04:57:53;;;;;;;17.23;16.40;;;3.10;73.60;;;;;;4986965;28;20039;-82
2022/01/22 05:00:19;;;;;;;16.60;15.77;;;3.10;73.60;;;;;;4978850;28;20392;-82
2022/01/22 05:02:45;;;;;;;16.57;15.77;;;3.10;73.60;;;;;;4978379;28;20488;-82
2022/01/22 05:05:12;;;;;;;17.07;16.27;;;3.20;73.70;;;;;;4990650;28;20044;-83
2022/01/22 05:07:38;;;;;;;17.53;16.63;;;3.20;73.90;;;;;;4987499;28;20487;-82
2022/01/22 05:10:05;;;;;;;17.43;16.63;;;3.20;73.70;;;;;;4988446;28;20038;-83
2022/01/22 05:12:31;;;;;;;19.10;17.83;;;3.30;73.80;;;;;;4990195;28;20026;-83
2022/01/22 05:14:57;;;;;;;17.40;16.60;;;3.40;73.70;;;;;;4993259;28;20045;-82
2022/01/22 05:17:23;;;;;;;17.87;17.00;;;3.40;73.60;;;;;;4989044;28;20403;-82
2022/01/22 05:24:52;;;;;;;18.20;17.33;;;3.40;73.60;;;;;;4992783;28;20041;-82
2022/01/22 05:32:55;;;;;;;19.30;18.17;;;3.50;73.60;;;;;;4987389;28;20042;-84
2022/01/22 05:38:09;;;;;;;17.80;16.90;;;3.50;73.70;;;;;;4987585;28;20034;-82
2022/01/22 05:40:35;;;;;;;18.00;17.10;;;3.50;73.60;;;;;;4987949;28;20031;-82
2022/01/22 05:43:03;;;;;;;17.50;16.60;;;3.60;73.70;;;;;;4984963;28;20436;-83
2022/01/22 05:45:29;;;;;;;17.77;16.87;;;3.60;73.70;;;;;;4989659;28;20483;-83
2022/01/22 05:47:55;;;;;;;17.63;16.67;;;3.60;73.70;;;;;;4991182;28;20027;-83
2022/01/22 05:50:32;;;;;;;17.27;16.47;;;3.60;73.60;;;;;;4987125;28;20034;-83
2022/01/22 05:53:04;;;;;;;17.47;16.60;;;3.60;73.70;;;;;;4991659;28;20042;-81
2022/01/22 05:59:36;;;;;;;17.00;16.10;;;3.60;73.70;;;;;;4992085;28;20050;-82
2022/01/22 06:01:14;;;;;;;16.93;16.13;;;3.70;73.80;;;;;;4987690;28;20054;-82
2022/01/22 06:03:40;;;;;;;17.03;16.23;;;3.60;73.70;;;;;;4986900;28;20039;-81
2022/01/22 06:06:06;;;;;;;17.40;16.50;;;3.60;73.80;;;;;;4992893;28;20034;-82
2022/01/22 06:08:41;;;;;;;16.80;16.00;;;3.70;73.90;;;;;;4980282;28;20484;-82
2022/01/22 06:11:09;;;;;;;17.43;16.60;;;3.70;73.90;;;;;;4985384;28;20126;-82
2022/01/22 06:13:46;;;;;;;17.00;16.20;;;3.70;73.80;;;;;;4975068;28;20064;-88
2022/01/22 06:16:16;;;;;;;17.17;16.37;;;3.70;73.80;;;;;;4989317;28;20034;-82
2022/01/22 06:18:42;;;;;;;16.05;15.35;;;3.80;73.80;;;;;;4993102;28;20558;-82
2022/01/22 06:21:09;;;;;;;16.47;15.67;;;3.90;73.70;;;;;;4991793;28;20038;-82
2022/01/22 06:23:36;;;;;;;17.70;16.90;;;3.90;73.70;;;;;;4962670;28;20439;-82
2022/01/22 06:26:03;;;;;;;15.73;15.03;;;3.90;73.70;;;;;;4979550;28;20041;-82
2022/01/22 06:28:29;;;;;;;18.07;17.07;;;3.90;73.80;;;;;;4985140;28;20034;-82
2022/01/22 06:30:55;;;;;;;16.90;16.10;;;3.90;73.90;;;;;;4991326;28;20038;-82
2022/01/22 06:33:22;;;;;;;17.13;16.33;;;3.90;74.00;;;;;;4991329;28;20037;-82
2022/01/22 06:35:48;;;;;;;17.87;17.00;;;3.90;73.90;;;;;;4990370;28;20041;-82
2022/01/22 06:38:14;;;;;;;17.20;16.40;;;3.90;73.90;;;;;;4974614;28;20037;-82
2022/01/22 06:43:06;;;;;;;16.83;16.03;;;3.90;74.10;;;;;;4987693;28;20037;-82
2022/01/22 06:45:32;;;;;;;17.60;16.60;;;4.00;74.10;;;;;;4990526;28;20038;-82
2022/01/22 06:47:59;;;;;;;16.47;15.57;;;4.00;74.10;;;;;;4990639;28;20042;-82
2022/01/22 06:50:25;;;;;;;17.57;16.50;;;4.00;74.10;;;;;;4992839;28;20065;-82
2022/01/22 06:52:58;;;;;;;17.30;16.50;;;4.00;74.20;;;;;;4995277;28;20050;-82
2022/01/22 06:55:45;;;;;;;16.80;16.00;;;4.00;74.10;;;;;;4982949;28;20042;-82
2022/01/22 06:58:12;;;;;;;16.20;15.50;;;4.00;74.10;;;;;;4981952;28;20061;-82
2022/01/22 07:00:38;;;;;;;16.93;16.10;;;4.00;74.10;;;;;;4981825;28;20384;-81
2022/01/22 07:03:04;;;;;;;17.30;16.50;;;4.00;74.10;;;;;;4982828;28;20022;-82
2022/01/22 07:05:30;;;;;;;17.30;16.40;;;4.00;74.20;;;;;;4989018;28;20042;-82
2022/01/22 07:07:56;;;;;;;16.67;15.83;;;4.10;74.20;;;;;;4990292;28;20676;-80
2022/01/22 07:10:23;;;;;;;17.33;16.50;;;4.10;74.20;;;;;;4984550;28;20042;-83
2022/01/22 07:12:49;;;;;;;16.57;15.77;;;4.10;74.20;;;;;;4994587;28;20026;-83
2022/01/22 07:15:15;;;;;;;16.50;15.67;;;4.10;74.20;;;;;;4982969;28;20053;-83
2022/01/22 07:17:41;;;;;;;16.60;15.80;;;4.20;74.30;;;;;;4991650;28;20030;-82
2022/01/22 07:20:16;;;;;;;16.37;15.57;;;4.10;74.20;;;;;;5005584;28;20054;-82
2022/01/22 07:22:51;;;;;;;17.73;16.73;;;4.20;74.30;;;;;;4979919;28;20054;-82
2022/01/22 07:25:18;;;;;;;17.00;16.20;;;4.20;74.30;;;;;;4988734;28;20051;-82
2022/01/22 07:27:44;;;;;;;16.77;15.97;;;4.20;74.30;;;;;;4981619;28;20046;-82
2022/01/22 07:30:11;;;;;;;17.70;16.80;;;4.20;74.40;;;;;;4990934;28;20388;-82
2022/01/22 07:32:41;;;;;;;17.67;16.77;;;4.20;74.40;;;;;;4982246;28;20030;-82
2022/01/22 07:35:08;;;;;;;16.77;15.97;;;4.20;74.40;;;;;;4963788;28;20046;-81
2022/01/22 07:37:36;;;;;;;17.30;16.40;;;4.20;74.40;;;;;;4985724;28;20035;-82
2022/01/22 07:40:11;;;;;;;17.20;16.40;;;4.20;74.30;;;;;;4986843;28;20042;-82
2022/01/22 07:42:39;;;;;;;16.73;15.93;;;4.30;74.50;;;;;;4990111;28;20034;-82
2022/01/22 07:45:06;;;;;;;17.00;16.20;;;4.30;74.40;;;;;;4979037;28;20046;-81
2022/01/22 07:47:32;;;;;;;17.30;16.50;;;4.30;74.50;;;;;;4991574;28;20391;-82
2022/01/22 07:49:58;;;;;;;17.20;16.30;;;4.30;74.50;;;;;;4982100;28;20408;-84
2022/01/22 07:52:25;;;;;;;18.13;17.17;;;4.30;74.50;;;;;;4988770;28;20034;-83
2022/01/22 07:54:51;;;;;;;17.30;16.40;;;4.30;74.50;;;;;;4990778;28;20035;-83
2022/01/22 07:57:17;;;;;;;17.27;16.47;;;4.30;74.60;;;;;;4990415;28;20038;-83
2022/01/22 07:59:43;;;;;;;16.87;16.07;;;4.30;74.50;;;;;;4988856;28;20423;-83
2022/01/22 08:02:09;;;;;;;17.97;16.93;;;4.30;74.50;;;;;;4991652;28;20050;-83
2022/01/22 08:04:35;;;;;;;16.60;15.80;;;4.30;74.60;;;;;;4980517;28;20038;-82
2022/01/22 08:07:02;;;;;;;16.60;15.80;;;4.40;74.60;;;;;;4989191;28;20034;-82
2022/01/22 08:09:28;;;;;;;17.93;17.03;;;4.40;74.70;;;;;;4993556;28;20403;-82
2022/01/22 08:11:55;;;;;;;17.23;16.43;;;4.40;75.40;;;;;;4987095;28;20030;-82
2022/01/22 08:14:21;;;;;;;16.83;16.03;;;4.40;74.60;;;;;;4989158;28;20039;-83
2022/01/22 08:16:49;;;;;;;16.30;15.60;;;4.40;74.60;;;;;;4991351;28;20055;-83
2022/01/22 08:19:16;;;;;;;16.73;15.93;;;4.50;74.60;;;;;;4990777;28;20050;-83
2022/01/22 08:21:45;;;;;;;17.10;16.30;;;4.50;74.60;;;;;;4983857;28;20031;-85
2022/01/22 08:24:12;;;;;;;16.97;16.17;;;4.50;74.60;;;;;;4989486;28;20499;-84
2022/01/22 08:26:47;;;;;;;16.13;15.33;;;4.50;74.60;;;;;;4986538;28;20023;-83
2022/01/22 08:29:14;;;;;;;18.37;17.27;;;4.50;74.60;;;;;;4991102;28;20053;-83
2022/01/22 08:32:02;;;;;;;17.13;16.33;;;4.60;74.50;;;;;;4994313;28;20034;-85
2022/01/22 08:37:10;;;;;;;19.30;17.13;;;4.60;74.60;;;;;;4996814;28;20033;-86
2022/01/22 08:39:36;;;;;;;17.17;16.37;;;4.60;74.50;;;;;;4992638;28;20396;-86
2022/01/22 08:42:03;;;;;;;17.67;16.80;;;4.70;74.60;;;;;;4992702;28;20038;-85
2022/01/22 08:44:29;;;;;;;17.57;16.73;;;4.70;74.60;;;;;;4989318;28;20514;-87
2022/01/22 08:46:56;;;;;;;17.87;16.97;;;4.70;74.50;;;;;;5004836;28;20038;-88
2022/01/22 08:49:22;;;;;;;16.37;15.63;;;4.70;74.50;;;;;;4986616;28;20034;-84
2022/01/22 08:51:49;;;;;;;16.83;16.03;;;4.80;74.60;;;;;;4987595;28;20041;-88
2022/01/22 08:54:15;;;;;;;16.67;15.87;;;4.80;74.60;;;;;;4994676;28;20042;-89
2022/01/22 08:56:41;;;;;;;17.30;16.50;;;4.80;74.60;;;;;;4993763;28;20031;-86
2022/01/22 08:59:08;;;;;;;17.33;16.53;;;4.80;74.60;;;;;;4980710;28;20030;-88
2022/01/22 09:01:35;;;;;;;16.77;15.97;;;4.80;74.60;;;;;;4993298;28;20065;-86
2022/01/22 09:04:01;;;;;;;17.20;16.40;;;4.90;74.70;;;;;;4983494;28;20045;-87
2022/01/22 09:06:28;;;;;;;17.87;16.90;;;4.90;74.70;;;;;;4990130;28;20039;-87
2022/01/22 09:09:03;;;;;;;18.30;17.30;;;4.90;74.70;;;;;;4994730;28;20031;-84
2022/01/22 09:22:59;;;;;;;1340.67;673.63;;;4.90;74.10;;;;;;5107756;27;20465;-81
2022/01/22 09:25:25;;;;;;;20.70;19.70;;;5.50;77.30;;;;;;5099919;28;20036;-80
2022/01/22 09:27:51;;;;;;;21.23;20.23;;;5.60;76.80;;;;;;5086140;28;20420;-81
2022/01/22 09:30:17;;;;;;;19.80;18.87;;;5.50;76.40;;;;;;5081108;28;20028;-80
2022/01/22 09:32:43;;;;;;;20.00;18.80;;;5.60;76.20;;;;;;5042656;28;20037;-81
2022/01/22 09:35:09;;;;;;;19.93;19.00;;;5.50;76.00;;;;;;5045020;28;20048;-81
2022/01/22 09:37:36;;;;;;;20.33;19.33;;;5.50;75.90;;;;;;5046626;28;20037;-80
2022/01/22 09:40:02;;;;;;;19.23;18.33;;;5.40;75.80;;;;;;5048327;28;20045;-80
2022/01/22 09:42:28;;;;;;;20.47;19.43;;;5.40;75.70;;;;;;5047067;28;20037;-80
2022/01/22 09:44:54;;;;;;;18.10;17.20;;;5.40;75.70;;;;;;5045637;28;20104;-81
2022/01/22 09:47:21;;;;;;;19.00;18.00;;;5.40;75.70;;;;;;5045736;28;20525;-78
2022/01/22 09:49:47;;;;;;;19.20;18.30;;;5.40;75.60;;;;;;5045909;28;20025;-80
2022/01/22 09:52:13;;;;;;;18.43;17.53;;;5.40;75.60;;;;;;5047063;28;20041;-81
2022/01/22 09:54:39;;;;;;;19.03;18.13;;;5.40;75.50;;;;;;5045322;28;20029;-81
2022/01/22 09:57:06;;;;;;;18.73;17.83;;;5.40;75.40;;;;;;5044047;28;20051;-80
2022/01/22 09:59:32;;;;;;;18.50;17.60;;;5.50;75.40;;;;;;5043107;28;20052;-79
2022/01/22 10:02:14;;;;;;;18.87;17.97;;;5.40;75.30;;;;;;5042366;28;20755;-79
2022/01/22 10:04:45;;;;;;;18.40;17.50;;;5.40;75.30;;;;;;5046856;28;20052;-79
2022/01/22 10:07:15;;;;;;;19.90;18.80;;;5.50;75.40;;;;;;5045116;28;20033;-79
2022/01/22 10:09:56;;;;;;;18.80;17.90;;;5.50;75.50;;;;;;5043439;28;20506;-79
2022/01/22 10:12:23;;;;;;;18.50;17.60;;;5.50;75.40;;;;;;5043161;28;20045;-81
2022/01/22 10:15:10;;;;;;;19.60;18.50;;;5.50;75.40;;;;;;5045151;28;20037;-81
2022/01/22 10:17:40;;;;;;;18.87;17.97;;;5.50;75.40;;;;;;5037584;28;20033;-80
2022/01/22 10:20:29;;;;;;;18.47;17.57;;;5.60;75.30;;;;;;5043722;28;20021;-80
2022/01/22 10:22:58;;;;;;;18.20;17.33;;;5.60;75.30;;;;;;5034919;28;20042;-79
2022/01/22 10:25:29;;;;;;;18.40;17.60;;;5.60;75.20;;;;;;5026390;28;20033;-80
2022/01/22 10:28:23;;;;;;;18.90;18.00;;;5.60;75.10;;;;;;5062997;28;20048;-81
2022/01/22 10:30:54;;;;;;;20.20;19.10;;;5.80;75.20;;;;;;5031789;28;20044;-81
2022/01/22 10:33:30;;;;;;;19.33;18.42;;;5.80;75.00;;;;;;5030720;28;20029;-81
2022/01/22 10:36:12;;;;;;;18.27;17.43;;;5.90;74.90;;;;;;5032374;28;20034;-80
2022/01/22 10:38:43;;;;;;;18.70;17.80;;;5.80;74.90;;;;;;5029293;28;20041;-81
2022/01/22 10:41:09;;;;;;;19.60;18.70;;;5.80;74.90;;;;;;5028896;28;20029;-81
2022/01/22 10:43:41;;;;;;;19.30;18.30;;;5.80;75.70;;;;;;5031850;28;20041;-79
2022/01/22 10:48:52;;;;;;;18.63;17.73;;;5.80;75.00;;;;;;5030536;28;20052;-81
2022/01/22 10:51:19;;;;;;;17.53;16.73;;;5.80;75.00;;;;;;5026382;28;20041;-82
2022/01/22 10:54:11;;;;;;;19.27;18.37;;;5.90;75.10;;;;;;5018307;28;20021;-80
2022/01/22 10:56:40;;;;;;;19.43;18.47;;;5.90;75.10;;;;;;5027488;28;20042;-83
2022/01/22 10:59:08;;;;;;;18.90;18.00;;;5.90;75.00;;;;;;5018984;28;20029;-80
2022/01/22 11:01:46;;;;;;;20.17;19.10;;;5.90;75.00;;;;;;5018358;28;20034;-80
2022/01/22 11:04:14;;;;;;;18.83;17.93;;;6.00;75.00;;;;;;5012326;28;20034;-79
2022/01/22 11:06:45;;;;;;;19.20;18.23;;;6.00;74.90;;;;;;5009940;28;20040;-79
2022/01/22 11:09:11;;;;;;;19.90;18.90;;;6.00;74.80;;;;;;5008713;28;20464;-80
2022/01/22 11:11:40;;;;;;;19.50;18.60;;;6.10;74.80;;;;;;5011572;28;20045;-80
2022/01/22 11:14:08;;;;;;;19.47;18.57;;;6.10;74.70;;;;;;5011719;28;20049;-79
2022/01/22 11:16:35;;;;;;;19.70;18.80;;;6.10;74.80;;;;;;5012249;28;20495;-79
2022/01/22 11:19:02;;;;;;;19.23;18.33;;;6.10;74.80;;;;;;5011492;28;20415;-79
2022/01/22 11:21:29;;;;;;;19.07;18.17;;;6.10;74.70;;;;;;5011860;28;20042;-78
2022/01/22 11:23:55;;;;;;;19.90;18.93;;;6.20;74.80;;;;;;5011170;28;20029;-79
2022/01/22 11:26:21;;;;;;;20.47;19.43;;;6.20;74.70;;;;;;5011927;28;20029;-79
2022/01/22 11:28:47;;;;;;;19.93;18.57;;;6.30;74.70;;;;;;5011105;28;20041;-79
2022/01/22 11:31:15;;;;;;;18.97;18.07;;;6.30;74.60;;;;;;5011298;28;20061;-81
2022/01/22 11:33:41;;;;;;;19.83;18.83;;;6.30;74.60;;;;;;5010940;28;20041;-80
2022/01/22 11:36:24;;;;;;;20.10;18.97;;;6.40;74.70;;;;;;5008750;28;20029;-79
2022/01/22 11:38:59;;;;;;;20.83;19.70;;;6.40;74.70;;;;;;4994044;28;20420;-81
2022/01/22 11:41:26;;;;;;;19.70;18.80;;;6.40;74.60;;;;;;5002739;28;20034;-84
2022/01/22 11:44:04;;;;;;;19.77;18.87;;;6.40;74.60;;;;;;5010481;28;20021;-81
2022/01/22 11:46:35;;;;;;;19.80;18.80;;;6.40;74.60;;;;;;5008356;28;20381;-82
2022/01/22 11:49:39;;;;;;;23.60;22.17;;;6.40;74.60;;;;;;5480236;23;20014;-83
2022/01/22 11:52:08;;;;;;;18.47;17.67;;;6.40;74.70;;;;;;4961902;28;20057;-89
2022/01/22 11:55:28;;;;;;;20.47;19.50;;;6.50;74.60;;;;;;4967736;28;20042;-85
2022/01/22 11:57:55;;;;;;;20.13;19.13;;;6.50;74.70;;;;;;4965771;28;20026;-86
2022/01/22 12:00:23;;;;;;;21.13;20.03;;;6.50;74.50;;;;;;4967461;28;20041;-83
2022/01/22 12:03:07;;;;;;;21.33;20.33;;;6.50;74.50;;;;;;4967630;28;20033;-86
2022/01/22 12:05:52;;;;;;;20.30;19.20;;;6.60;74.60;;;;;;4964965;28;20500;-83
2022/01/22 12:08:19;;;;;;;19.80;18.90;;;6.60;74.50;;;;;;4971294;28;20031;-83
2022/01/22 12:14:27;;;;;;;19.90;19.00;;;6.70;74.50;;;;;;4970399;28;20044;-84
2022/01/22 12:16:36;;;;;;;20.50;19.50;;;6.70;74.40;;;;;;4974314;28;20050;-84
2022/01/22 12:19:04;;;;;;;19.27;18.37;;;6.80;74.40;;;;;;4961966;28;20043;-84
2022/01/22 12:21:35;;;;;;;20.20;19.20;;;6.80;74.30;;;;;;4959521;28;20023;-85
2022/01/22 12:24:02;;;;;;;;;;;6.90;74.30;;;;;;4964432;28;20035;-84
2022/01/22 12:26:43;;;;;;;19.57;18.67;;;6.90;74.40;;;;;;4967176;28;20403;-83
2022/01/22 12:29:36;;;;;;;20.13;18.98;;;6.80;74.20;;;;;;4946173;28;20043;-83
2022/01/22 12:32:11;;;;;;;19.73;18.73;;;6.90;74.30;;;;;;4967909;28;20536;-84
2022/01/22 12:34:57;;;;;;;20.07;19.17;;;6.90;74.20;;;;;;4968850;28;20373;-83
2022/01/22 12:37:23;;;;;;;19.83;18.93;;;6.90;74.20;;;;;;4969651;28;20046;-84
2022/01/22 12:39:52;;;;;;;20.23;19.33;;;7.00;74.30;;;;;;4967655;28;20045;-83
2022/01/22 12:42:27;;;;;;;20.07;18.73;;;7.00;74.30;;;;;;4968229;28;20015;-83
2022/01/22 12:44:59;;;;;;;20.50;19.50;;;7.00;74.30;;;;;;4966664;28;20035;-83
2022/01/22 12:47:26;;;;;;;19.47;18.57;;;7.00;74.20;;;;;;4954850;28;20046;-83
2022/01/22 12:50:02;;;;;;;18.37;17.57;;;7.10;74.20;;;;;;4961859;28;20057;-83
2022/01/22 12:52:28;;;;;;;19.27;18.37;;;7.10;74.20;;;;;;4986421;28;20068;-83
2022/01/22 12:54:58;;;;;;;19.40;18.50;;;7.10;74.20;;;;;;4971736;28;20049;-83
2022/01/22 12:57:25;;;;;;;19.13;18.23;;;7.10;75.00;;;;;;4987329;28;20035;-83
2022/01/22 13:00:01;;;;;;;19.57;18.67;;;7.10;74.20;;;;;;4985878;28;20038;-83
2022/01/22 13:02:47;;;;;;;19.30;18.40;;;7.10;74.20;;;;;;4988164;28;20046;-83
2022/01/22 13:05:14;;;;;;;19.57;18.67;;;7.10;74.30;;;;;;4977603;28;20033;-83
2022/01/22 13:07:51;;;;;;;20.13;19.17;;;7.10;74.20;;;;;;4971726;28;20076;-83
2022/01/22 13:10:17;;;;;;;19.33;18.43;;;7.10;74.20;;;;;;4988185;28;20038;-83
2022/01/22 13:12:44;;;;;;;22.97;21.20;;;7.10;74.20;;;;;;4986632;28;20042;-83
2022/01/22 13:15:11;;;;;;;20.47;19.47;;;7.20;74.20;;;;;;4987124;28;20053;-83
2022/01/22 13:17:37;;;;;;;20.27;19.37;;;7.20;74.20;;;;;;4986260;28;20038;-83
2022/01/22 13:20:04;;;;;;;20.70;19.70;;;7.20;74.20;;;;;;4988547;28;20042;-83
2022/01/22 13:22:38;;;;;;;20.50;19.50;;;7.20;74.20;;;;;;4988880;28;20495;-83
2022/01/22 13:25:08;;;;;;;20.63;19.57;;;7.20;74.20;;;;;;4989969;28;20061;-83
2022/01/22 13:27:38;;;;;;;19.88;18.98;;;7.20;74.20;;;;;;4986649;28;20484;-84
2022/01/22 13:30:06;;;;;;;19.97;19.07;;;7.20;74.20;;;;;;4989330;28;20503;-83
2022/01/22 13:32:54;;;;;;;20.83;19.83;;;7.20;74.20;;;;;;4986152;28;20038;-84
2022/01/22 13:35:31;;;;;;;19.80;18.90;;;7.20;74.30;;;;;;4988308;28;20483;-84
2022/01/22 13:49:29;;;;;;;20.23;19.33;;;7.20;74.20;;;;;;4991483;28;20045;-84
2022/01/22 13:51:58;;;;;;;21.57;20.57;;;7.20;74.30;;;;;;4972913;28;20069;-86
2022/01/22 13:54:29;;;;;;;23.47;22.37;;;7.20;74.30;;;;;;4986260;28;20037;-85
2022/01/22 13:56:58;;;;;;;19.70;18.70;;;7.10;74.30;;;;;;4981560;28;20030;-86
2022/01/22 13:59:41;;;;;;;20.00;19.10;;;7.10;74.30;;;;;;4988593;28;20040;-86
2022/01/22 14:04:41;;;;;;;19.50;18.60;;;7.10;74.40;;;;;;4980352;28;20073;-87
2022/01/22 14:07:25;;;;;;;23.73;22.63;;;7.10;74.40;;;;;;4993524;28;20411;-86
2022/01/22 14:09:57;;;;;;;20.87;19.87;;;7.10;74.40;;;;;;4997816;28;20500;-86
2022/01/22 14:12:30;;;;;;;19.10;18.20;;;7.10;74.40;;;;;;4990846;28;21844;-86
2022/01/22 14:14:58;;;;;;;21.70;20.70;;;7.10;74.50;;;;;;4990467;28;20468;-85
2022/01/22 14:17:31;;;;;;;20.10;19.20;;;7.10;74.50;;;;;;4991041;28;20045;-86
2022/01/22 14:20:01;;;;;;;19.47;18.47;;;7.10;74.50;;;;;;4985397;28;20140;-85
2022/01/22 14:22:28;;;;;;;19.50;18.60;;;7.10;74.60;;;;;;4977165;28;20039;-85
2022/01/22 14:25:13;;;;;;;19.93;19.03;;;7.10;74.60;;;;;;4991986;28;20038;-87
2022/01/22 14:27:39;;;;;;;19.63;18.73;;;7.10;74.60;;;;;;4993272;28;20027;-86
2022/01/22 14:30:06;;;;;;;20.07;19.17;;;7.10;74.60;;;;;;4990442;28;20515;-84
2022/01/22 14:32:32;;;;;;;19.57;18.67;;;7.10;74.50;;;;;;4985818;28;20038;-84
2022/01/22 14:34:59;;;;;;;19.60;18.70;;;7.10;74.50;;;;;;4995631;28;20515;-84
2022/01/22 14:37:28;;;;;;;19.30;18.40;;;7.10;74.50;;;;;;4985588;28;20050;-87
2022/01/22 14:45:58;;;;;;;20.30;19.40;;;7.10;74.50;;;;;;4951366;28;20418;-81
2022/01/22 14:48:25;;;;;;;20.03;18.93;;;7.10;74.40;;;;;;4944951;29;20035;-84